Argonia, KS

8:35 AM CDT on September 17, 2014 (GMT -0500)
Anthony Medical Center | Change Station
CLOSE
Current Station
Personal Weather Station
Location: Anthony, KS
Elevation: 1355 ft
Nearby Weather Stations

Elev 1355 ft 37.16 °N, 98.02 °W | Updated 15 seconds ago

Fog
Fog
71.2 °F
Feels Like 71.2 °F
N
3.0
Wind Variable Wind from SSW
Gusts 4.0 mph

Today
High -- | Low -- °F
--% Chance of Precip.
Yesterday
High -- | Low -- °F
Precip. -- in
7:14 AM 7:35 PM
Waning Crescent, 36% visible
Pressure 29.92 in
Visibility 3.0 miles
Clouds Scattered Clouds 7000 ft
Dew Point 68 °F
Humidity 88%
Rainfall 0.00 in
Snow Depth Not available.
UV 0 out of 12
Pollen 7.90 out of 12
Air Quality Not available.
Flu Activity Not available.
SPECI KICT 171310Z 21004KT 3SM BR SCT070 21/19 A2992

More Conditions Fewer Conditions

Pressure 29.92 in
Visibility 3.0 miles
Clouds Scattered Clouds 7000 ft
Dew Point 68 °F
Humidity 88%
Rainfall 0.00 in
Snow Depth Not available.
UV 0 out of 12
Pollen 7.90 out of 12
Air Quality Not available.
Flu Activity Not available.
SPECI KICT 171310Z 21004KT 3SM BR SCT070 21/19 A2992

More Conditions Fewer Conditions

10-Day Weather Forecast

Almanac

Astronomy

Sep. 17, 2014 Rise Set
Actual Time 7:14 AM CDT 7:35 PM CDT
Civil Twilight 6:48 AM CDT 8:01 PM CDT
Nautical Twilight 6:18 AM CDT 8:32 PM CDT
Astronomical Twilight 5:46 AM CDT 9:03 PM CDT
Moon 1:21 AM CDT 3:41 PM CDT
Length of Visible Light 13h 12m
Length of Day
12h 20m
Tomorrow will be 2m 22s shorter.
Waning Crescent, 36% of the Moon is Illuminated
Today
Waning Crescent
Sep 24
New
Oct 1
First Quarter
Oct 8
Full
Oct 15
Last Quarter

Today's Extremes

State Highs State Lows

Community

WunderPhotos

Upload Photos

1,754,029 photos uploaded!

Nearby

Snow Depth

Station Depth Elevation
No new snow has been reported.

Earthquake Activity

City Distance Mag. Time & Date
Yale, Oklahoma 93 miles 3.3 7:02 AM CDT
2014-09-17
Yale, Oklahoma 93 miles 3.0 6:58 AM CDT
2014-09-17
Medford, Oklahoma 30 miles 3.2 6:09 AM CDT
2014-09-17
Perry, Oklahoma 75 miles 2.6 11:07 PM CDT
2014-09-16
Minimum magnitude displayed is 2.5.

Coastal Water Temperatures

Place Temperature
No Stations Reporting

Nearby Weather Stations